sensor_id;sensor_type;location;lat;lon;timestamp;P1;durP1;ratioP1;P2;durP2;ratioP2
26391;SDS011;14572;43.120;1.178;2022-08-19T00:05:16;6.93;;;5.03;;
26391;SDS011;14572;43.120;1.178;2022-08-19T00:07:50;7.30;;;4.50;;
26391;SDS011;14572;43.120;1.178;2022-08-19T00:10:17;8.07;;;5.40;;
26391;SDS011;14572;43.120;1.178;2022-08-19T00:12:45;7.15;;;4.53;;
26391;SDS011;14572;43.120;1.178;2022-08-19T00:15:13;8.32;;;4.22;;
26391;SDS011;14572;43.120;1.178;2022-08-19T00:17:42;7.88;;;4.75;;
26391;SDS011;14572;43.120;1.178;2022-08-19T00:20:11;8.48;;;4.30;;
26391;SDS011;14572;43.120;1.178;2022-08-19T00:22:43;7.07;;;4.80;;
26391;SDS011;14572;43.120;1.178;2022-08-19T00:25:10;7.20;;;4.28;;
26391;SDS011;14572;43.120;1.178;2022-08-19T00:27:38;8.38;;;4.90;;
26391;SDS011;14572;43.120;1.178;2022-08-19T00:30:06;14.70;;;5.43;;
26391;SDS011;14572;43.120;1.178;2022-08-19T00:32:50;8.82;;;5.05;;
26391;SDS011;14572;43.120;1.178;2022-08-19T00:35:19;9.30;;;4.75;;
26391;SDS011;14572;43.120;1.178;2022-08-19T00:37:48;9.27;;;4.97;;
26391;SDS011;14572;43.120;1.178;2022-08-19T00:40:16;9.07;;;4.63;;
26391;SDS011;14572;43.120;1.178;2022-08-19T00:42:44;8.70;;;5.18;;
26391;SDS011;14572;43.120;1.178;2022-08-19T00:45:14;7.78;;;4.57;;
26391;SDS011;14572;43.120;1.178;2022-08-19T00:47:45;9.85;;;5.25;;
26391;SDS011;14572;43.120;1.178;2022-08-19T00:50:13;9.20;;;4.80;;
26391;SDS011;14572;43.120;1.178;2022-08-19T00:52:42;7.75;;;5.45;;
26391;SDS011;14572;43.120;1.178;2022-08-19T00:55:14;11.27;;;4.63;;
26391;SDS011;14572;43.120;1.178;2022-08-19T00:57:44;8.98;;;5.00;;
26391;SDS011;14572;43.120;1.178;2022-08-19T01:00:15;7.00;;;4.70;;
26391;SDS011;14572;43.120;1.178;2022-08-19T01:02:43;8.82;;;5.35;;
26391;SDS011;14572;43.120;1.178;2022-08-19T01:05:11;8.63;;;4.95;;
26391;SDS011;14572;43.120;1.178;2022-08-19T01:07:40;9.15;;;5.43;;
26391;SDS011;14572;43.120;1.178;2022-08-19T01:10:09;7.15;;;5.07;;
26391;SDS011;14572;43.120;1.178;2022-08-19T01:12:40;8.32;;;4.70;;
26391;SDS011;14572;43.120;1.178;2022-08-19T01:15:08;9.48;;;5.43;;
26391;SDS011;14572;43.120;1.178;2022-08-19T01:17:37;7.55;;;5.10;;
26391;SDS011;14572;43.120;1.178;2022-08-19T01:20:05;9.60;;;5.18;;
26391;SDS011;14572;43.120;1.178;2022-08-19T01:25:06;9.57;;;5.35;;
26391;SDS011;14572;43.120;1.178;2022-08-19T01:27:38;9.52;;;5.40;;
26391;SDS011;14572;43.120;1.178;2022-08-19T01:30:07;8.75;;;5.07;;
26391;SDS011;14572;43.120;1.178;2022-08-19T01:32:36;10.40;;;5.57;;
26391;SDS011;14572;43.120;1.178;2022-08-19T01:35:03;8.82;;;5.07;;
26391;SDS011;14572;43.120;1.178;2022-08-19T01:37:42;7.28;;;5.22;;
26391;SDS011;14572;43.120;1.178;2022-08-19T01:40:10;7.60;;;5.07;;
26391;SDS011;14572;43.120;1.178;2022-08-19T01:42:37;9.40;;;5.57;;
26391;SDS011;14572;43.120;1.178;2022-08-19T01:45:06;8.43;;;5.90;;
26391;SDS011;14572;43.120;1.178;2022-08-19T01:47:34;13.90;;;5.93;;
26391;SDS011;14572;43.120;1.178;2022-08-19T01:50:02;12.77;;;5.97;;
26391;SDS011;14572;43.120;1.178;2022-08-19T01:52:29;7.38;;;5.50;;
26391;SDS011;14572;43.120;1.178;2022-08-19T01:54:58;7.22;;;5.95;;
26391;SDS011;14572;43.120;1.178;2022-08-19T01:57:26;11.65;;;6.40;;
26391;SDS011;14572;43.120;1.178;2022-08-19T01:59:53;11.13;;;5.43;;
26391;SDS011;14572;43.120;1.178;2022-08-19T02:02:20;8.65;;;5.43;;
26391;SDS011;14572;43.120;1.178;2022-08-19T02:04:47;15.35;;;6.45;;
26391;SDS011;14572;43.120;1.178;2022-08-19T02:07:14;11.38;;;6.60;;
26391;SDS011;14572;43.120;1.178;2022-08-19T02:09:41;10.52;;;6.65;;
26391;SDS011;14572;43.120;1.178;2022-08-19T02:12:10;10.85;;;5.70;;
26391;SDS011;14572;43.120;1.178;2022-08-19T02:14:37;10.70;;;5.95;;
26391;SDS011;14572;43.120;1.178;2022-08-19T02:17:07;9.98;;;5.90;;
26391;SDS011;14572;43.120;1.178;2022-08-19T02:19:34;7.70;;;5.70;;
26391;SDS011;14572;43.120;1.178;2022-08-19T02:22:01;14.20;;;6.13;;
26391;SDS011;14572;43.120;1.178;2022-08-19T02:24:29;8.82;;;5.00;;
26391;SDS011;14572;43.120;1.178;2022-08-19T02:26:56;8.40;;;5.45;;
26391;SDS011;14572;43.120;1.178;2022-08-19T02:29:25;11.30;;;4.90;;
26391;SDS011;14572;43.120;1.178;2022-08-19T02:34:44;6.22;;;4.55;;
26391;SDS011;14572;43.120;1.178;2022-08-19T02:37:11;10.10;;;4.10;;
26391;SDS011;14572;43.120;1.178;2022-08-19T02:39:52;7.75;;;4.35;;
26391;SDS011;14572;43.120;1.178;2022-08-19T02:42:19;5.40;;;4.00;;
26391;SDS011;14572;43.120;1.178;2022-08-19T02:44:48;10.48;;;4.05;;
26391;SDS011;14572;43.120;1.178;2022-08-19T02:47:15;8.75;;;4.00;;
26391;SDS011;14572;43.120;1.178;2022-08-19T02:49:43;5.03;;;3.95;;
26391;SDS011;14572;43.120;1.178;2022-08-19T02:52:10;5.45;;;3.90;;
26391;SDS011;14572;43.120;1.178;2022-08-19T02:54:38;6.22;;;3.67;;
26391;SDS011;14572;43.120;1.178;2022-08-19T02:57:05;6.95;;;3.80;;
26391;SDS011;14572;43.120;1.178;2022-08-19T02:59:32;8.30;;;3.60;;
26391;SDS011;14572;43.120;1.178;2022-08-19T03:02:01;4.88;;;3.88;;
26391;SDS011;14572;43.120;1.178;2022-08-19T03:04:28;5.88;;;3.50;;
26391;SDS011;14572;43.120;1.178;2022-08-19T03:06:55;5.82;;;4.00;;
26391;SDS011;14572;43.120;1.178;2022-08-19T03:09:23;9.13;;;4.50;;
26391;SDS011;14572;43.120;1.178;2022-08-19T03:11:50;6.57;;;3.75;;
26391;SDS011;14572;43.120;1.178;2022-08-19T03:14:17;5.95;;;3.80;;
26391;SDS011;14572;43.120;1.178;2022-08-19T03:16:44;6.30;;;4.10;;
26391;SDS011;14572;43.120;1.178;2022-08-19T03:19:18;6.40;;;4.57;;
26391;SDS011;14572;43.120;1.178;2022-08-19T03:21:46;9.98;;;4.45;;
26391;SDS011;14572;43.120;1.178;2022-08-19T03:24:14;8.57;;;4.22;;
26391;SDS011;14572;43.120;1.178;2022-08-19T03:26:43;7.45;;;3.85;;
26391;SDS011;14572;43.120;1.178;2022-08-19T03:29:11;8.57;;;4.15;;
26391;SDS011;14572;43.120;1.178;2022-08-19T03:31:39;9.10;;;4.28;;
26391;SDS011;14572;43.120;1.178;2022-08-19T03:37:27;8.68;;;4.70;;
26391;SDS011;14572;43.120;1.178;2022-08-19T03:39:54;6.85;;;4.57;;
26391;SDS011;14572;43.120;1.178;2022-08-19T03:42:21;5.72;;;4.80;;
26391;SDS011;14572;43.120;1.178;2022-08-19T03:44:48;7.57;;;5.05;;
26391;SDS011;14572;43.120;1.178;2022-08-19T03:47:15;6.70;;;4.95;;
26391;SDS011;14572;43.120;1.178;2022-08-19T03:49:42;7.78;;;4.88;;
26391;SDS011;14572;43.120;1.178;2022-08-19T03:52:10;8.02;;;4.90;;
26391;SDS011;14572;43.120;1.178;2022-08-19T03:54:38;10.88;;;5.25;;
26391;SDS011;14572;43.120;1.178;2022-08-19T03:57:05;8.48;;;5.57;;
26391;SDS011;14572;43.120;1.178;2022-08-19T03:59:34;15.43;;;5.68;;
26391;SDS011;14572;43.120;1.178;2022-08-19T04:02:06;6.53;;;5.03;;
26391;SDS011;14572;43.120;1.178;2022-08-19T04:04:35;7.80;;;4.97;;
26391;SDS011;14572;43.120;1.178;2022-08-19T04:07:02;10.18;;;5.00;;
26391;SDS011;14572;43.120;1.178;2022-08-19T04:09:30;9.75;;;5.45;;
26391;SDS011;14572;43.120;1.178;2022-08-19T04:11:58;11.38;;;5.57;;
26391;SDS011;14572;43.120;1.178;2022-08-19T04:14:26;9.05;;;5.65;;
26391;SDS011;14572;43.120;1.178;2022-08-19T04:16:55;7.20;;;5.35;;
26391;SDS011;14572;43.120;1.178;2022-08-19T04:19:22;6.43;;;5.38;;
26391;SDS011;14572;43.120;1.178;2022-08-19T04:21:50;6.90;;;5.65;;
26391;SDS011;14572;43.120;1.178;2022-08-19T04:24:18;12.15;;;5.72;;
26391;SDS011;14572;43.120;1.178;2022-08-19T04:26:46;8.00;;;6.20;;
26391;SDS011;14572;43.120;1.178;2022-08-19T04:29:16;8.07;;;6.18;;
26391;SDS011;14572;43.120;1.178;2022-08-19T04:31:47;9.95;;;6.32;;
26391;SDS011;14572;43.120;1.178;2022-08-19T04:34:15;7.05;;;5.55;;
26391;SDS011;14572;43.120;1.178;2022-08-19T04:36:44;12.23;;;6.22;;
26391;SDS011;14572;43.120;1.178;2022-08-19T04:39:12;13.60;;;6.38;;
26391;SDS011;14572;43.120;1.178;2022-08-19T04:41:41;13.57;;;6.85;;
26391;SDS011;14572;43.120;1.178;2022-08-19T04:44:27;9.68;;;5.90;;
26391;SDS011;14572;43.120;1.178;2022-08-19T04:46:55;12.35;;;6.57;;
26391;SDS011;14572;43.120;1.178;2022-08-19T04:49:23;8.70;;;6.05;;
26391;SDS011;14572;43.120;1.178;2022-08-19T04:51:53;7.30;;;6.57;;
26391;SDS011;14572;43.120;1.178;2022-08-19T04:54:28;9.70;;;6.47;;
26391;SDS011;14572;43.120;1.178;2022-08-19T04:56:55;9.48;;;6.30;;
26391;SDS011;14572;43.120;1.178;2022-08-19T04:59:23;9.82;;;5.97;;
26391;SDS011;14572;43.120;1.178;2022-08-19T05:01:51;10.52;;;6.20;;
26391;SDS011;14572;43.120;1.178;2022-08-19T05:04:19;7.55;;;6.18;;
26391;SDS011;14572;43.120;1.178;2022-08-19T05:06:46;11.75;;;6.80;;
26391;SDS011;14572;43.120;1.178;2022-08-19T05:09:14;10.60;;;5.90;;
26391;SDS011;14572;43.120;1.178;2022-08-19T05:11:42;6.97;;;6.13;;
26391;SDS011;14572;43.120;1.178;2022-08-19T05:14:09;11.82;;;6.25;;
26391;SDS011;14572;43.120;1.178;2022-08-19T05:16:39;9.30;;;5.80;;
26391;SDS011;14572;43.120;1.178;2022-08-19T05:19:08;8.95;;;6.00;;
26391;SDS011;14572;43.120;1.178;2022-08-19T05:21:52;14.60;;;6.45;;
26391;SDS011;14572;43.120;1.178;2022-08-19T05:24:37;12.40;;;6.13;;
26391;SDS011;14572;43.120;1.178;2022-08-19T05:27:04;13.82;;;6.28;;
26391;SDS011;14572;43.120;1.178;2022-08-19T05:29:32;8.98;;;6.00;;
26391;SDS011;14572;43.120;1.178;2022-08-19T05:32:00;11.30;;;6.72;;
26391;SDS011;14572;43.120;1.178;2022-08-19T05:34:29;8.82;;;6.68;;
26391;SDS011;14572;43.120;1.178;2022-08-19T05:36:58;9.90;;;6.88;;
26391;SDS011;14572;43.120;1.178;2022-08-19T05:39:26;12.63;;;7.00;;
26391;SDS011;14572;43.120;1.178;2022-08-19T05:41:55;9.57;;;6.65;;
26391;SDS011;14572;43.120;1.178;2022-08-19T05:44:24;13.07;;;6.72;;
26391;SDS011;14572;43.120;1.178;2022-08-19T05:46:51;11.73;;;6.78;;
26391;SDS011;14572;43.120;1.178;2022-08-19T05:49:20;10.38;;;7.07;;
26391;SDS011;14572;43.120;1.178;2022-08-19T05:51:50;12.18;;;6.80;;
26391;SDS011;14572;43.120;1.178;2022-08-19T05:54:17;11.43;;;7.13;;
26391;SDS011;14572;43.120;1.178;2022-08-19T05:56:45;13.25;;;6.78;;
26391;SDS011;14572;43.120;1.178;2022-08-19T05:59:13;12.40;;;6.28;;
26391;SDS011;14572;43.120;1.178;2022-08-19T06:01:43;14.95;;;7.35;;
26391;SDS011;14572;43.120;1.178;2022-08-19T06:04:11;12.52;;;7.55;;
26391;SDS011;14572;43.120;1.178;2022-08-19T06:06:39;11.77;;;6.70;;
26391;SDS011;14572;43.120;1.178;2022-08-19T06:09:07;11.57;;;6.90;;
26391;SDS011;14572;43.120;1.178;2022-08-19T06:11:36;8.90;;;6.28;;
26391;SDS011;14572;43.120;1.178;2022-08-19T06:14:07;13.70;;;6.63;;
26391;SDS011;14572;43.120;1.178;2022-08-19T06:16:36;8.13;;;5.97;;
26391;SDS011;14572;43.120;1.178;2022-08-19T06:19:06;9.15;;;6.03;;
26391;SDS011;14572;43.120;1.178;2022-08-19T06:21:35;6.47;;;5.50;;
26391;SDS011;14572;43.120;1.178;2022-08-19T06:24:04;8.52;;;4.75;;
26391;SDS011;14572;43.120;1.178;2022-08-19T06:26:35;8.98;;;4.20;;
26391;SDS011;14572;43.120;1.178;2022-08-19T06:29:04;8.60;;;4.85;;
26391;SDS011;14572;43.120;1.178;2022-08-19T06:31:32;9.25;;;4.78;;
26391;SDS011;14572;43.120;1.178;2022-08-19T06:34:01;7.78;;;4.30;;
26391;SDS011;14572;43.120;1.178;2022-08-19T06:36:29;6.70;;;3.92;;
26391;SDS011;14572;43.120;1.178;2022-08-19T06:38:59;6.05;;;4.65;;
26391;SDS011;14572;43.120;1.178;2022-08-19T06:41:27;8.73;;;4.50;;
26391;SDS011;14572;43.120;1.178;2022-08-19T06:43:57;8.07;;;4.53;;
26391;SDS011;14572;43.120;1.178;2022-08-19T06:46:24;6.22;;;3.22;;
26391;SDS011;14572;43.120;1.178;2022-08-19T06:48:52;3.90;;;3.10;;
26391;SDS011;14572;43.120;1.178;2022-08-19T06:51:20;4.70;;;3.10;;
26391;SDS011;14572;43.120;1.178;2022-08-19T06:53:49;3.60;;;2.65;;
26391;SDS011;14572;43.120;1.178;2022-08-19T06:56:18;3.95;;;2.80;;
26391;SDS011;14572;43.120;1.178;2022-08-19T06:58:46;5.78;;;2.85;;
26391;SDS011;14572;43.120;1.178;2022-08-19T07:01:19;4.50;;;2.90;;
26391;SDS011;14572;43.120;1.178;2022-08-19T07:03:46;5.07;;;3.30;;
26391;SDS011;14572;43.120;1.178;2022-08-19T07:06:14;4.20;;;3.05;;
26391;SDS011;14572;43.120;1.178;2022-08-19T07:08:43;4.00;;;2.65;;
26391;SDS011;14572;43.120;1.178;2022-08-19T07:11:11;3.40;;;2.65;;
26391;SDS011;14572;43.120;1.178;2022-08-19T07:13:40;4.85;;;3.20;;
26391;SDS011;14572;43.120;1.178;2022-08-19T07:16:09;4.53;;;3.20;;
26391;SDS011;14572;43.120;1.178;2022-08-19T07:18:39;6.82;;;2.83;;
26391;SDS011;14572;43.120;1.178;2022-08-19T07:21:08;7.63;;;3.10;;
26391;SDS011;14572;43.120;1.178;2022-08-19T07:23:36;4.50;;;3.47;;
26391;SDS011;14572;43.120;1.178;2022-08-19T07:26:04;5.32;;;2.92;;
26391;SDS011;14572;43.120;1.178;2022-08-19T07:28:32;3.17;;;2.47;;
26391;SDS011;14572;43.120;1.178;2022-08-19T07:30:59;5.97;;;3.20;;
26391;SDS011;14572;43.120;1.178;2022-08-19T07:33:28;3.85;;;2.88;;
26391;SDS011;14572;43.120;1.178;2022-08-19T07:35:59;3.55;;;2.72;;
26391;SDS011;14572;43.120;1.178;2022-08-19T07:38:26;3.22;;;2.60;;
26391;SDS011;14572;43.120;1.178;2022-08-19T07:40:53;2.60;;;2.08;;
26391;SDS011;14572;43.120;1.178;2022-08-19T07:43:20;5.22;;;2.72;;
26391;SDS011;14572;43.120;1.178;2022-08-19T07:45:50;5.25;;;3.83;;
26391;SDS011;14572;43.120;1.178;2022-08-19T07:48:18;5.20;;;3.40;;
26391;SDS011;14572;43.120;1.178;2022-08-19T07:50:45;5.07;;;2.70;;
26391;SDS011;14572;43.120;1.178;2022-08-19T07:53:15;4.32;;;2.50;;
26391;SDS011;14572;43.120;1.178;2022-08-19T07:55:42;4.45;;;2.58;;
26391;SDS011;14572;43.120;1.178;2022-08-19T07:58:10;5.50;;;2.78;;
26391;SDS011;14572;43.120;1.178;2022-08-19T08:00:39;2.97;;;2.22;;
26391;SDS011;14572;43.120;1.178;2022-08-19T08:03:07;7.70;;;2.60;;
26391;SDS011;14572;43.120;1.178;2022-08-19T08:05:34;3.55;;;2.60;;
26391;SDS011;14572;43.120;1.178;2022-08-19T08:08:20;6.43;;;2.80;;
26391;SDS011;14572;43.120;1.178;2022-08-19T08:11:01;5.68;;;3.30;;
26391;SDS011;14572;43.120;1.178;2022-08-19T08:13:28;6.32;;;2.75;;
26391;SDS011;14572;43.120;1.178;2022-08-19T08:15:55;9.35;;;2.97;;
26391;SDS011;14572;43.120;1.178;2022-08-19T08:18:22;2.97;;;2.72;;
26391;SDS011;14572;43.120;1.178;2022-08-19T08:20:50;4.82;;;3.25;;
26391;SDS011;14572;43.120;1.178;2022-08-19T08:23:17;5.50;;;3.17;;
26391;SDS011;14572;43.120;1.178;2022-08-19T08:25:52;5.82;;;3.10;;
26391;SDS011;14572;43.120;1.178;2022-08-19T08:28:20;5.75;;;3.22;;
26391;SDS011;14572;43.120;1.178;2022-08-19T08:30:48;4.28;;;3.05;;
26391;SDS011;14572;43.120;1.178;2022-08-19T08:33:17;5.63;;;3.15;;
26391;SDS011;14572;43.120;1.178;2022-08-19T08:35:44;4.97;;;2.80;;
26391;SDS011;14572;43.120;1.178;2022-08-19T08:38:11;5.68;;;2.60;;
26391;SDS011;14572;43.120;1.178;2022-08-19T08:40:39;3.08;;;2.78;;
26391;SDS011;14572;43.120;1.178;2022-08-19T08:43:13;7.18;;;3.20;;
26391;SDS011;14572;43.120;1.178;2022-08-19T08:45:51;4.82;;;3.00;;
26391;SDS011;14572;43.120;1.178;2022-08-19T08:48:23;3.85;;;3.10;;
26391;SDS011;14572;43.120;1.178;2022-08-19T08:50:51;5.00;;;3.00;;
26391;SDS011;14572;43.120;1.178;2022-08-19T08:53:20;5.07;;;3.10;;
26391;SDS011;14572;43.120;1.178;2022-08-19T08:55:48;5.97;;;3.28;;
26391;SDS011;14572;43.120;1.178;2022-08-19T08:58:17;4.13;;;2.83;;
26391;SDS011;14572;43.120;1.178;2022-08-19T09:00:49;5.75;;;2.75;;
26391;SDS011;14572;43.120;1.178;2022-08-19T09:03:17;5.70;;;2.80;;
26391;SDS011;14572;43.120;1.178;2022-08-19T09:05:49;3.85;;;2.95;;
26391;SDS011;14572;43.120;1.178;2022-08-19T09:08:26;4.63;;;3.10;;
26391;SDS011;14572;43.120;1.178;2022-08-19T09:10:58;4.97;;;3.22;;
26391;SDS011;14572;43.120;1.178;2022-08-19T09:13:27;8.30;;;3.35;;
26391;SDS011;14572;43.120;1.178;2022-08-19T09:16:00;5.72;;;3.22;;
26391;SDS011;14572;43.120;1.178;2022-08-19T09:18:38;3.67;;;3.03;;
26391;SDS011;14572;43.120;1.178;2022-08-19T09:21:06;4.95;;;3.17;;
26391;SDS011;14572;43.120;1.178;2022-08-19T09:23:33;5.85;;;3.28;;
26391;SDS011;14572;43.120;1.178;2022-08-19T09:26:04;5.60;;;3.55;;
26391;SDS011;14572;43.120;1.178;2022-08-19T09:28:35;5.72;;;3.67;;
26391;SDS011;14572;43.120;1.178;2022-08-19T09:31:03;5.22;;;2.67;;
26391;SDS011;14572;43.120;1.178;2022-08-19T09:33:30;6.43;;;2.78;;
26391;SDS011;14572;43.120;1.178;2022-08-19T09:36:01;3.63;;;2.50;;
26391;SDS011;14572;43.120;1.178;2022-08-19T09:38:30;3.72;;;2.50;;
26391;SDS011;14572;43.120;1.178;2022-08-19T09:41:01;5.85;;;2.88;;
26391;SDS011;14572;43.120;1.178;2022-08-19T09:43:30;5.35;;;2.60;;
26391;SDS011;14572;43.120;1.178;2022-08-19T09:46:00;5.53;;;2.15;;
26391;SDS011;14572;43.120;1.178;2022-08-19T09:48:27;3.90;;;2.30;;
26391;SDS011;14572;43.120;1.178;2022-08-19T09:50:55;3.83;;;2.45;;
26391;SDS011;14572;43.120;1.178;2022-08-19T09:53:22;6.47;;;3.28;;
26391;SDS011;14572;43.120;1.178;2022-08-19T09:55:48;3.92;;;2.50;;
26391;SDS011;14572;43.120;1.178;2022-08-19T09:58:16;7.15;;;2.30;;
26391;SDS011;14572;43.120;1.178;2022-08-19T10:00:43;4.60;;;2.35;;
26391;SDS011;14572;43.120;1.178;2022-08-19T10:03:12;2.20;;;1.90;;
26391;SDS011;14572;43.120;1.178;2022-08-19T10:05:39;5.05;;;2.00;;
26391;SDS011;14572;43.120;1.178;2022-08-19T10:08:16;3.92;;;2.60;;
26391;SDS011;14572;43.120;1.178;2022-08-19T10:10:44;4.97;;;1.67;;
26391;SDS011;14572;43.120;1.178;2022-08-19T10:13:12;4.60;;;2.15;;
26391;SDS011;14572;43.120;1.178;2022-08-19T10:15:40;6.82;;;2.10;;
26391;SDS011;14572;43.120;1.178;2022-08-19T10:18:07;3.70;;;2.10;;
26391;SDS011;14572;43.120;1.178;2022-08-19T10:20:36;4.55;;;2.30;;
26391;SDS011;14572;43.120;1.178;2022-08-19T10:23:03;2.47;;;1.60;;
26391;SDS011;14572;43.120;1.178;2022-08-19T10:25:31;3.30;;;1.95;;
26391;SDS011;14572;43.120;1.178;2022-08-19T10:27:59;6.40;;;2.10;;
26391;SDS011;14572;43.120;1.178;2022-08-19T10:30:26;3.22;;;1.60;;
26391;SDS011;14572;43.120;1.178;2022-08-19T10:32:54;4.10;;;1.90;;
26391;SDS011;14572;43.120;1.178;2022-08-19T10:35:21;2.97;;;1.83;;
26391;SDS011;14572;43.120;1.178;2022-08-19T10:37:50;3.47;;;1.83;;
26391;SDS011;14572;43.120;1.178;2022-08-19T10:40:17;4.50;;;1.73;;
26391;SDS011;14572;43.120;1.178;2022-08-19T10:42:44;3.13;;;1.77;;
26391;SDS011;14572;43.120;1.178;2022-08-19T10:45:11;4.70;;;2.08;;
26391;SDS011;14572;43.120;1.178;2022-08-19T10:47:38;2.83;;;1.55;;
26391;SDS011;14572;43.120;1.178;2022-08-19T10:50:05;4.13;;;1.40;;
26391;SDS011;14572;43.120;1.178;2022-08-19T10:52:52;4.13;;;1.50;;
26391;SDS011;14572;43.120;1.178;2022-08-19T10:55:20;3.45;;;1.23;;
26391;SDS011;14572;43.120;1.178;2022-08-19T10:58:10;1.48;;;1.30;;
26391;SDS011;14572;43.120;1.178;2022-08-19T11:00:38;1.75;;;1.20;;
26391;SDS011;14572;43.120;1.178;2022-08-19T11:03:06;1.95;;;1.27;;
26391;SDS011;14572;43.120;1.178;2022-08-19T11:05:33;3.15;;;1.50;;
26391;SDS011;14572;43.120;1.178;2022-08-19T11:08:02;3.13;;;1.30;;
26391;SDS011;14572;43.120;1.178;2022-08-19T11:10:29;7.18;;;1.40;;
26391;SDS011;14572;43.120;1.178;2022-08-19T11:12:56;4.78;;;1.50;;
26391;SDS011;14572;43.120;1.178;2022-08-19T11:15:23;4.78;;;1.80;;
26391;SDS011;14572;43.120;1.178;2022-08-19T11:17:53;3.45;;;1.63;;
26391;SDS011;14572;43.120;1.178;2022-08-19T11:20:21;2.20;;;1.45;;
26391;SDS011;14572;43.120;1.178;2022-08-19T11:22:50;3.38;;;1.20;;
26391;SDS011;14572;43.120;1.178;2022-08-19T11:25:19;3.17;;;1.00;;
26391;SDS011;14572;43.120;1.178;2022-08-19T11:27:46;1.98;;;1.30;;
26391;SDS011;14572;43.120;1.178;2022-08-19T11:30:16;2.38;;;1.15;;
26391;SDS011;14572;43.120;1.178;2022-08-19T14:02:00;4.45;;;0.88;;
26391;SDS011;14572;43.120;1.178;2022-08-19T14:04:27;0.77;;;0.60;;
26391;SDS011;14572;43.120;1.178;2022-08-19T14:06:54;1.15;;;0.88;;
26391;SDS011;14572;43.120;1.178;2022-08-19T14:09:21;3.90;;;0.50;;
26391;SDS011;14572;43.120;1.178;2022-08-19T14:11:49;2.80;;;0.80;;
26391;SDS011;14572;43.120;1.178;2022-08-19T14:14:16;0.60;;;0.60;;
26391;SDS011;14572;43.120;1.178;2022-08-19T14:16:43;2.15;;;0.52;;
26391;SDS011;14572;43.120;1.178;2022-08-19T14:19:12;1.15;;;0.65;;
26391;SDS011;14572;43.120;1.178;2022-08-19T14:21:39;1.00;;;0.60;;
26391;SDS011;14572;43.120;1.178;2022-08-19T14:24:08;1.15;;;0.65;;
26391;SDS011;14572;43.120;1.178;2022-08-19T14:26:35;2.15;;;0.70;;
26391;SDS011;14572;43.120;1.178;2022-08-19T14:29:02;1.35;;;0.80;;
26391;SDS011;14572;43.120;1.178;2022-08-19T14:31:29;3.55;;;0.73;;
26391;SDS011;14572;43.120;1.178;2022-08-19T14:33:56;2.13;;;0.90;;
26391;SDS011;14572;43.120;1.178;2022-08-19T14:36:25;1.45;;;0.70;;
26391;SDS011;14572;43.120;1.178;2022-08-19T14:38:52;1.35;;;0.80;;
26391;SDS011;14572;43.120;1.178;2022-08-19T14:41:20;3.78;;;0.90;;
26391;SDS011;14572;43.120;1.178;2022-08-19T14:43:50;1.08;;;0.65;;
26391;SDS011;14572;43.120;1.178;2022-08-19T14:46:19;2.13;;;0.73;;
26391;SDS011;14572;43.120;1.178;2022-08-19T14:48:47;0.95;;;0.60;;
26391;SDS011;14572;43.120;1.178;2022-08-19T14:51:15;1.00;;;0.70;;
26391;SDS011;14572;43.120;1.178;2022-08-19T14:53:44;1.30;;;0.80;;
26391;SDS011;14572;43.120;1.178;2022-08-19T14:56:14;1.33;;;0.65;;
26391;SDS011;14572;43.120;1.178;2022-08-19T14:58:42;1.80;;;1.00;;
26391;SDS011;14572;43.120;1.178;2022-08-19T15:01:11;2.17;;;0.80;;
26391;SDS011;14572;43.120;1.178;2022-08-19T15:03:39;1.33;;;0.80;;
26391;SDS011;14572;43.120;1.178;2022-08-19T15:06:06;0.80;;;0.60;;
26391;SDS011;14572;43.120;1.178;2022-08-19T15:08:34;0.85;;;0.70;;
26391;SDS011;14572;43.120;1.178;2022-08-19T15:11:08;1.10;;;1.00;;
26391;SDS011;14572;43.120;1.178;2022-08-19T15:13:36;4.35;;;0.90;;
26391;SDS011;14572;43.120;1.178;2022-08-19T15:16:04;3.38;;;0.80;;
26391;SDS011;14572;43.120;1.178;2022-08-19T15:18:31;1.38;;;1.00;;
26391;SDS011;14572;43.120;1.178;2022-08-19T15:21:00;0.77;;;0.70;;
26391;SDS011;14572;43.120;1.178;2022-08-19T15:23:27;2.35;;;0.73;;
26391;SDS011;14572;43.120;1.178;2022-08-19T15:25:54;1.38;;;1.00;;
26391;SDS011;14572;43.120;1.178;2022-08-19T15:28:23;2.25;;;0.75;;
26391;SDS011;14572;43.120;1.178;2022-08-19T15:30:51;2.03;;;1.15;;
26391;SDS011;14572;43.120;1.178;2022-08-19T15:33:18;2.13;;;1.20;;
26391;SDS011;14572;43.120;1.178;2022-08-19T15:35:46;2.45;;;0.90;;
26391;SDS011;14572;43.120;1.178;2022-08-19T15:38:15;3.75;;;1.58;;
26391;SDS011;14572;43.120;1.178;2022-08-19T15:40:44;2.10;;;0.90;;
26391;SDS011;14572;43.120;1.178;2022-08-19T15:43:12;4.53;;;1.17;;
26391;SDS011;14572;43.120;1.178;2022-08-19T15:45:41;2.28;;;1.30;;
26391;SDS011;14572;43.120;1.178;2022-08-19T15:48:08;1.85;;;1.00;;
26391;SDS011;14572;43.120;1.178;2022-08-19T15:50:35;2.63;;;1.20;;
26391;SDS011;14572;43.120;1.178;2022-08-19T15:53:04;6.22;;;1.48;;
26391;SDS011;14572;43.120;1.178;2022-08-19T15:55:34;4.55;;;1.55;;
26391;SDS011;14572;43.120;1.178;2022-08-19T15:58:03;2.47;;;1.20;;
26391;SDS011;14572;43.120;1.178;2022-08-19T16:00:50;2.95;;;1.20;;
26391;SDS011;14572;43.120;1.178;2022-08-19T16:03:34;2.45;;;1.52;;
26391;SDS011;14572;43.120;1.178;2022-08-19T16:06:18;4.00;;;1.38;;
26391;SDS011;14572;43.120;1.178;2022-08-19T16:08:51;1.92;;;1.20;;
26391;SDS011;14572;43.120;1.178;2022-08-19T16:11:19;2.63;;;1.10;;
26391;SDS011;14572;43.120;1.178;2022-08-19T16:13:47;3.58;;;1.33;;
26391;SDS011;14572;43.120;1.178;2022-08-19T16:16:17;5.13;;;1.45;;
26391;SDS011;14572;43.120;1.178;2022-08-19T16:18:44;4.55;;;1.63;;
26391;SDS011;14572;43.120;1.178;2022-08-19T16:21:11;2.47;;;1.40;;
26391;SDS011;14572;43.120;1.178;2022-08-19T16:23:41;4.43;;;1.30;;
26391;SDS011;14572;43.120;1.178;2022-08-19T16:26:10;1.90;;;1.40;;
26391;SDS011;14572;43.120;1.178;2022-08-19T16:28:37;6.47;;;1.52;;
26391;SDS011;14572;43.120;1.178;2022-08-19T16:31:04;2.28;;;1.30;;
26391;SDS011;14572;43.120;1.178;2022-08-19T16:33:33;1.75;;;1.25;;
26391;SDS011;14572;43.120;1.178;2022-08-19T16:36:00;2.17;;;1.13;;
26391;SDS011;14572;43.120;1.178;2022-08-19T16:38:28;1.35;;;1.25;;
26391;SDS011;14572;43.120;1.178;2022-08-19T16:40:55;2.38;;;1.42;;
26391;SDS011;14572;43.120;1.178;2022-08-19T16:43:24;1.73;;;1.23;;
26391;SDS011;14572;43.120;1.178;2022-08-19T16:45:52;4.97;;;1.27;;
26391;SDS011;14572;43.120;1.178;2022-08-19T16:48:19;3.25;;;1.17;;
26391;SDS011;14572;43.120;1.178;2022-08-19T16:50:49;3.67;;;1.30;;
26391;SDS011;14572;43.120;1.178;2022-08-19T16:53:19;3.60;;;1.30;;
26391;SDS011;14572;43.120;1.178;2022-08-19T16:55:47;1.90;;;1.70;;
26391;SDS011;14572;43.120;1.178;2022-08-19T16:58:14;5.90;;;1.50;;
26391;SDS011;14572;43.120;1.178;2022-08-19T17:00:42;2.13;;;1.30;;
26391;SDS011;14572;43.120;1.178;2022-08-19T17:03:09;1.65;;;1.30;;
26391;SDS011;14572;43.120;1.178;2022-08-19T17:05:40;2.85;;;1.30;;
26391;SDS011;14572;43.120;1.178;2022-08-19T17:08:09;7.10;;;1.73;;
26391;SDS011;14572;43.120;1.178;2022-08-19T17:10:36;2.90;;;1.40;;
26391;SDS011;14572;43.120;1.178;2022-08-19T17:13:04;3.42;;;1.00;;
26391;SDS011;14572;43.120;1.178;2022-08-19T17:15:32;6.63;;;1.60;;
26391;SDS011;14572;43.120;1.178;2022-08-19T17:17:59;5.38;;;1.38;;
26391;SDS011;14572;43.120;1.178;2022-08-19T17:20:27;3.00;;;1.10;;
26391;SDS011;14572;43.120;1.178;2022-08-19T17:22:55;2.45;;;1.48;;
26391;SDS011;14572;43.120;1.178;2022-08-19T17:25:23;3.90;;;1.65;;
26391;SDS011;14572;43.120;1.178;2022-08-19T17:27:51;2.20;;;1.33;;
26391;SDS011;14572;43.120;1.178;2022-08-19T17:30:19;3.25;;;1.60;;
26391;SDS011;14572;43.120;1.178;2022-08-19T17:32:47;4.78;;;1.35;;
26391;SDS011;14572;43.120;1.178;2022-08-19T17:35:14;2.65;;;1.33;;
26391;SDS011;14572;43.120;1.178;2022-08-19T17:37:45;1.67;;;1.50;;